sensor_id;sensor_type;location;lat;lon;timestamp;temperature;humidity
1880;DHT22;49285;49.002;8.390;2024-01-27T00:01:34;7.30;99.90
1880;DHT22;49285;49.002;8.390;2024-01-27T00:04:00;7.30;99.90
1880;DHT22;49285;49.002;8.390;2024-01-27T00:06:26;7.30;99.90
1880;DHT22;49285;49.002;8.390;2024-01-27T00:08:51;7.20;99.90
1880;DHT22;49285;49.002;8.390;2024-01-27T00:11:17;7.20;99.90
1880;DHT22;49285;49.002;8.390;2024-01-27T00:13:43;7.20;99.90
1880;DHT22;49285;49.002;8.390;2024-01-27T00:16:09;7.20;99.90
1880;DHT22;49285;49.002;8.390;2024-01-27T00:18:36;7.20;99.90
1880;DHT22;49285;49.002;8.390;2024-01-27T00:21:02;7.20;99.90
1880;DHT22;49285;49.002;8.390;2024-01-27T00:23:28;7.20;99.90
1880;DHT22;49285;49.002;8.390;2024-01-27T00:25:54;7.10;99.90
1880;DHT22;49285;49.002;8.390;2024-01-27T00:28:19;7.10;99.90
1880;DHT22;49285;49.002;8.390;2024-01-27T00:30:45;7.10;99.90
1880;DHT22;49285;49.002;8.390;2024-01-27T00:33:10;7.10;99.90
1880;DHT22;49285;49.002;8.390;2024-01-27T00:35:36;7.10;99.90
1880;DHT22;49285;49.002;8.390;2024-01-27T00:38:02;7.00;99.90
1880;DHT22;49285;49.002;8.390;2024-01-27T00:40:28;7.00;99.90
1880;DHT22;49285;49.002;8.390;2024-01-27T00:42:54;7.00;99.90
1880;DHT22;49285;49.002;8.390;2024-01-27T00:45:20;6.90;99.90
1880;DHT22;49285;49.002;8.390;2024-01-27T00:47:51;6.90;99.90
1880;DHT22;49285;49.002;8.390;2024-01-27T00:50:16;6.90;99.90
1880;DHT22;49285;49.002;8.390;2024-01-27T00:52:42;6.90;99.90
1880;DHT22;49285;49.002;8.390;2024-01-27T00:55:08;6.90;99.90
1880;DHT22;49285;49.002;8.390;2024-01-27T00:57:36;6.90;99.90
1880;DHT22;49285;49.002;8.390;2024-01-27T01:00:05;6.90;99.90
1880;DHT22;49285;49.002;8.390;2024-01-27T01:02:32;6.90;99.90
1880;DHT22;49285;49.002;8.390;2024-01-27T01:04:57;6.90;99.90
1880;DHT22;49285;49.002;8.390;2024-01-27T01:07:23;6.90;99.90
1880;DHT22;49285;49.002;8.390;2024-01-27T01:09:49;6.70;99.90
1880;DHT22;49285;49.002;8.390;2024-01-27T01:12:14;6.70;99.90
1880;DHT22;49285;49.002;8.390;2024-01-27T01:14:41;6.70;99.90
1880;DHT22;49285;49.002;8.390;2024-01-27T01:17:07;6.60;99.90
1880;DHT22;49285;49.002;8.390;2024-01-27T01:19:32;6.60;99.90
1880;DHT22;49285;49.002;8.390;2024-01-27T01:21:58;6.60;99.90
1880;DHT22;49285;49.002;8.390;2024-01-27T01:24:23;6.60;99.90
1880;DHT22;49285;49.002;8.390;2024-01-27T01:26:49;6.50;99.90
1880;DHT22;49285;49.002;8.390;2024-01-27T01:29:14;6.50;99.90
1880;DHT22;49285;49.002;8.390;2024-01-27T01:31:42;6.50;99.90
1880;DHT22;49285;49.002;8.390;2024-01-27T01:34:08;6.50;99.90
1880;DHT22;49285;49.002;8.390;2024-01-27T01:36:34;6.50;99.90
1880;DHT22;49285;49.002;8.390;2024-01-27T01:38:59;6.50;99.90
1880;DHT22;49285;49.002;8.390;2024-01-27T01:41:25;6.50;99.90
1880;DHT22;49285;49.002;8.390;2024-01-27T01:43:50;6.50;99.90
1880;DHT22;49285;49.002;8.390;2024-01-27T01:46:17;6.50;99.90
1880;DHT22;49285;49.002;8.390;2024-01-27T01:48:42;6.50;99.90
1880;DHT22;49285;49.002;8.390;2024-01-27T01:51:08;6.50;99.90
1880;DHT22;49285;49.002;8.390;2024-01-27T01:53:34;6.50;99.90
1880;DHT22;49285;49.002;8.390;2024-01-27T01:56:01;6.50;99.90
1880;DHT22;49285;49.002;8.390;2024-01-27T01:58:26;6.50;99.90
1880;DHT22;49285;49.002;8.390;2024-01-27T02:00:59;6.40;99.90
1880;DHT22;49285;49.002;8.390;2024-01-27T02:03:25;6.40;99.90
1880;DHT22;49285;49.002;8.390;2024-01-27T02:05:51;6.40;99.90
1880;DHT22;49285;49.002;8.390;2024-01-27T02:08:17;6.30;99.90
1880;DHT22;49285;49.002;8.390;2024-01-27T02:10:43;6.30;99.90
1880;DHT22;49285;49.002;8.390;2024-01-27T02:13:18;6.40;99.90
1880;DHT22;49285;49.002;8.390;2024-01-27T02:15:45;6.30;99.90
1880;DHT22;49285;49.002;8.390;2024-01-27T02:18:10;6.30;99.90
1880;DHT22;49285;49.002;8.390;2024-01-27T02:20:36;6.40;99.90
1880;DHT22;49285;49.002;8.390;2024-01-27T02:23:03;6.30;99.90
1880;DHT22;49285;49.002;8.390;2024-01-27T02:25:30;6.30;99.90
1880;DHT22;49285;49.002;8.390;2024-01-27T02:27:56;6.20;99.90
1880;DHT22;49285;49.002;8.390;2024-01-27T02:30:22;6.20;99.90
1880;DHT22;49285;49.002;8.390;2024-01-27T02:32:47;6.20;99.90
1880;DHT22;49285;49.002;8.390;2024-01-27T02:35:13;6.20;99.90
1880;DHT22;49285;49.002;8.390;2024-01-27T02:37:40;6.20;99.90
1880;DHT22;49285;49.002;8.390;2024-01-27T02:40:06;6.20;99.90
1880;DHT22;49285;49.002;8.390;2024-01-27T02:42:32;6.10;99.90
1880;DHT22;49285;49.002;8.390;2024-01-27T02:44:58;6.10;99.90
1880;DHT22;49285;49.002;8.390;2024-01-27T02:47:23;6.00;99.90
1880;DHT22;49285;49.002;8.390;2024-01-27T02:49:49;6.00;99.90
1880;DHT22;49285;49.002;8.390;2024-01-27T02:52:15;6.00;99.90
1880;DHT22;49285;49.002;8.390;2024-01-27T02:54:40;5.90;99.90
1880;DHT22;49285;49.002;8.390;2024-01-27T02:57:06;5.90;99.90
1880;DHT22;49285;49.002;8.390;2024-01-27T02:59:32;5.90;99.90
1880;DHT22;49285;49.002;8.390;2024-01-27T03:01:57;5.80;99.90
1880;DHT22;49285;49.002;8.390;2024-01-27T03:04:23;5.80;99.90
1880;DHT22;49285;49.002;8.390;2024-01-27T03:06:48;5.80;99.90
1880;DHT22;49285;49.002;8.390;2024-01-27T03:09:14;5.80;99.90
1880;DHT22;49285;49.002;8.390;2024-01-27T03:11:39;5.80;99.90
1880;DHT22;49285;49.002;8.390;2024-01-27T03:14:05;5.70;99.90
1880;DHT22;49285;49.002;8.390;2024-01-27T03:16:31;5.60;99.90
1880;DHT22;49285;49.002;8.390;2024-01-27T03:18:56;5.70;99.90
1880;DHT22;49285;49.002;8.390;2024-01-27T03:21:22;5.60;99.90
1880;DHT22;49285;49.002;8.390;2024-01-27T03:23:47;5.60;99.90
1880;DHT22;49285;49.002;8.390;2024-01-27T03:26:13;5.60;99.90
1880;DHT22;49285;49.002;8.390;2024-01-27T03:28:38;5.50;99.90
1880;DHT22;49285;49.002;8.390;2024-01-27T03:31:04;5.50;99.90
1880;DHT22;49285;49.002;8.390;2024-01-27T03:33:29;5.50;99.90
1880;DHT22;49285;49.002;8.390;2024-01-27T03:35:56;5.50;99.90
1880;DHT22;49285;49.002;8.390;2024-01-27T03:38:24;5.50;99.90
1880;DHT22;49285;49.002;8.390;2024-01-27T03:40:50;5.50;99.90
1880;DHT22;49285;49.002;8.390;2024-01-27T03:43:16;5.50;99.90
1880;DHT22;49285;49.002;8.390;2024-01-27T03:45:41;5.40;99.90
1880;DHT22;49285;49.002;8.390;2024-01-27T03:48:07;5.40;99.90
1880;DHT22;49285;49.002;8.390;2024-01-27T03:50:32;5.50;99.90
1880;DHT22;49285;49.002;8.390;2024-01-27T03:52:58;5.50;99.90
1880;DHT22;49285;49.002;8.390;2024-01-27T03:55:24;5.40;99.90
1880;DHT22;49285;49.002;8.390;2024-01-27T03:57:49;5.40;99.90
1880;DHT22;49285;49.002;8.390;2024-01-27T04:00:15;5.40;99.90
1880;DHT22;49285;49.002;8.390;2024-01-27T04:02:41;5.40;99.90
1880;DHT22;49285;49.002;8.390;2024-01-27T04:05:06;5.40;99.90
1880;DHT22;49285;49.002;8.390;2024-01-27T04:07:32;5.40;99.90
1880;DHT22;49285;49.002;8.390;2024-01-27T04:09:58;5.40;99.90
1880;DHT22;49285;49.002;8.390;2024-01-27T04:12:24;5.40;99.90
1880;DHT22;49285;49.002;8.390;2024-01-27T04:14:49;5.40;99.90
1880;DHT22;49285;49.002;8.390;2024-01-27T04:17:15;5.40;99.90
1880;DHT22;49285;49.002;8.390;2024-01-27T04:19:40;5.40;99.90
1880;DHT22;49285;49.002;8.390;2024-01-27T04:22:06;5.30;99.90
1880;DHT22;49285;49.002;8.390;2024-01-27T04:24:32;5.30;99.90
1880;DHT22;49285;49.002;8.390;2024-01-27T04:26:59;5.30;99.90
1880;DHT22;49285;49.002;8.390;2024-01-27T04:29:24;5.30;99.90
1880;DHT22;49285;49.002;8.390;2024-01-27T04:31:50;5.30;99.90
1880;DHT22;49285;49.002;8.390;2024-01-27T04:34:16;5.20;99.90
1880;DHT22;49285;49.002;8.390;2024-01-27T04:36:41;5.20;99.90
1880;DHT22;49285;49.002;8.390;2024-01-27T04:39:07;5.20;99.90
1880;DHT22;49285;49.002;8.390;2024-01-27T04:41:34;5.20;99.90
1880;DHT22;49285;49.002;8.390;2024-01-27T04:44:06;5.20;99.90
1880;DHT22;49285;49.002;8.390;2024-01-27T04:46:31;5.20;99.90
1880;DHT22;49285;49.002;8.390;2024-01-27T04:48:57;5.10;99.90
1880;DHT22;49285;49.002;8.390;2024-01-27T04:51:22;5.00;99.90
1880;DHT22;49285;49.002;8.390;2024-01-27T04:53:48;4.90;99.90
1880;DHT22;49285;49.002;8.390;2024-01-27T04:56:14;4.90;99.90
1880;DHT22;49285;49.002;8.390;2024-01-27T04:58:39;4.90;99.90
1880;DHT22;49285;49.002;8.390;2024-01-27T05:01:05;4.90;99.90
1880;DHT22;49285;49.002;8.390;2024-01-27T05:03:31;4.80;99.90
1880;DHT22;49285;49.002;8.390;2024-01-27T05:05:57;4.80;99.90
1880;DHT22;49285;49.002;8.390;2024-01-27T05:08:23;4.80;99.90
1880;DHT22;49285;49.002;8.390;2024-01-27T05:10:48;4.90;99.90
1880;DHT22;49285;49.002;8.390;2024-01-27T05:13:14;4.80;99.90
1880;DHT22;49285;49.002;8.390;2024-01-27T05:15:39;4.80;99.90
1880;DHT22;49285;49.002;8.390;2024-01-27T05:18:05;4.80;99.90
1880;DHT22;49285;49.002;8.390;2024-01-27T05:20:30;4.80;99.90
1880;DHT22;49285;49.002;8.390;2024-01-27T05:22:56;4.80;99.90
1880;DHT22;49285;49.002;8.390;2024-01-27T05:25:21;4.80;99.90
1880;DHT22;49285;49.002;8.390;2024-01-27T05:27:47;4.80;99.90
1880;DHT22;49285;49.002;8.390;2024-01-27T05:30:13;4.80;99.90
1880;DHT22;49285;49.002;8.390;2024-01-27T05:32:39;4.90;99.90
1880;DHT22;49285;49.002;8.390;2024-01-27T05:35:06;4.90;99.90
1880;DHT22;49285;49.002;8.390;2024-01-27T05:37:31;4.90;99.90
1880;DHT22;49285;49.002;8.390;2024-01-27T05:39:57;4.90;99.90
1880;DHT22;49285;49.002;8.390;2024-01-27T05:42:22;4.90;99.90
1880;DHT22;49285;49.002;8.390;2024-01-27T05:44:48;4.80;99.90
1880;DHT22;49285;49.002;8.390;2024-01-27T05:47:13;4.80;99.90
1880;DHT22;49285;49.002;8.390;2024-01-27T05:49:39;4.80;99.90
1880;DHT22;49285;49.002;8.390;2024-01-27T05:52:05;4.90;99.90
1880;DHT22;49285;49.002;8.390;2024-01-27T05:54:30;4.90;99.90
1880;DHT22;49285;49.002;8.390;2024-01-27T05:56:56;4.90;99.90
1880;DHT22;49285;49.002;8.390;2024-01-27T05:59:22;4.90;99.90
1880;DHT22;49285;49.002;8.390;2024-01-27T06:01:47;4.90;99.90
1880;DHT22;49285;49.002;8.390;2024-01-27T06:04:13;4.80;99.90
1880;DHT22;49285;49.002;8.390;2024-01-27T06:06:39;4.90;99.90
1880;DHT22;49285;49.002;8.390;2024-01-27T06:09:07;4.90;99.90
1880;DHT22;49285;49.002;8.390;2024-01-27T06:11:36;4.90;99.90
1880;DHT22;49285;49.002;8.390;2024-01-27T06:14:02;4.80;99.90
1880;DHT22;49285;49.002;8.390;2024-01-27T06:16:28;4.80;99.90
1880;DHT22;49285;49.002;8.390;2024-01-27T06:18:54;4.70;99.90
1880;DHT22;49285;49.002;8.390;2024-01-27T06:21:20;4.70;99.90
1880;DHT22;49285;49.002;8.390;2024-01-27T06:23:46;4.70;99.90
1880;DHT22;49285;49.002;8.390;2024-01-27T06:26:13;4.70;99.90
1880;DHT22;49285;49.002;8.390;2024-01-27T06:28:39;4.70;99.90
1880;DHT22;49285;49.002;8.390;2024-01-27T06:31:05;4.70;99.90
1880;DHT22;49285;49.002;8.390;2024-01-27T06:33:31;4.70;99.90
1880;DHT22;49285;49.002;8.390;2024-01-27T06:35:57;4.70;99.90
1880;DHT22;49285;49.002;8.390;2024-01-27T06:38:23;4.70;99.90
1880;DHT22;49285;49.002;8.390;2024-01-27T06:40:48;4.70;99.90
1880;DHT22;49285;49.002;8.390;2024-01-27T06:43:14;4.70;99.90
1880;DHT22;49285;49.002;8.390;2024-01-27T06:45:40;4.70;99.90
1880;DHT22;49285;49.002;8.390;2024-01-27T06:48:06;4.70;99.90
1880;DHT22;49285;49.002;8.390;2024-01-27T06:50:33;4.70;99.90
1880;DHT22;49285;49.002;8.390;2024-01-27T06:52:58;4.70;99.90
1880;DHT22;49285;49.002;8.390;2024-01-27T06:55:24;4.70;99.90
1880;DHT22;49285;49.002;8.390;2024-01-27T06:57:50;4.70;99.90
1880;DHT22;49285;49.002;8.390;2024-01-27T07:00:16;4.70;99.90
1880;DHT22;49285;49.002;8.390;2024-01-27T07:02:43;4.70;99.90
1880;DHT22;49285;49.002;8.390;2024-01-27T07:05:09;4.70;99.90
1880;DHT22;49285;49.002;8.390;2024-01-27T07:07:35;4.70;99.90
1880;DHT22;49285;49.002;8.390;2024-01-27T07:10:01;4.70;99.90
1880;DHT22;49285;49.002;8.390;2024-01-27T07:12:27;4.70;99.90
1880;DHT22;49285;49.002;8.390;2024-01-27T07:14:53;4.80;99.90
1880;DHT22;49285;49.002;8.390;2024-01-27T07:17:20;4.70;99.90
1880;DHT22;49285;49.002;8.390;2024-01-27T07:19:46;4.70;99.90
1880;DHT22;49285;49.002;8.390;2024-01-27T07:22:11;4.80;99.90
1880;DHT22;49285;49.002;8.390;2024-01-27T07:24:37;4.80;99.90
1880;DHT22;49285;49.002;8.390;2024-01-27T07:27:03;4.80;99.90
1880;DHT22;49285;49.002;8.390;2024-01-27T07:29:29;4.80;99.90
1880;DHT22;49285;49.002;8.390;2024-01-27T07:31:55;4.80;99.90
1880;DHT22;49285;49.002;8.390;2024-01-27T07:34:21;4.80;99.90
1880;DHT22;49285;49.002;8.390;2024-01-27T07:36:46;4.80;99.90
1880;DHT22;49285;49.002;8.390;2024-01-27T07:39:14;4.80;99.90
1880;DHT22;49285;49.002;8.390;2024-01-27T07:41:40;4.80;99.90
1880;DHT22;49285;49.002;8.390;2024-01-27T07:44:15;4.80;99.90
1880;DHT22;49285;49.002;8.390;2024-01-27T07:46:41;4.80;99.90
1880;DHT22;49285;49.002;8.390;2024-01-27T07:49:08;4.80;99.90
1880;DHT22;49285;49.002;8.390;2024-01-27T07:51:33;4.80;99.90
1880;DHT22;49285;49.002;8.390;2024-01-27T07:54:00;4.80;99.90
1880;DHT22;49285;49.002;8.390;2024-01-27T07:56:26;4.80;99.90
1880;DHT22;49285;49.002;8.390;2024-01-27T07:58:52;4.80;99.90
1880;DHT22;49285;49.002;8.390;2024-01-27T08:01:18;4.80;99.90
1880;DHT22;49285;49.002;8.390;2024-01-27T08:03:44;4.80;99.90
1880;DHT22;49285;49.002;8.390;2024-01-27T08:06:17;4.80;99.90
1880;DHT22;49285;49.002;8.390;2024-01-27T08:08:47;4.80;99.90
1880;DHT22;49285;49.002;8.390;2024-01-27T08:11:14;4.80;99.90
1880;DHT22;49285;49.002;8.390;2024-01-27T08:13:41;4.80;99.90
1880;DHT22;49285;49.002;8.390;2024-01-27T08:16:07;4.80;99.90
1880;DHT22;49285;49.002;8.390;2024-01-27T08:18:35;4.80;99.90
1880;DHT22;49285;49.002;8.390;2024-01-27T08:21:02;4.80;99.90
1880;DHT22;49285;49.002;8.390;2024-01-27T08:23:28;4.80;99.90
1880;DHT22;49285;49.002;8.390;2024-01-27T08:25:54;4.90;99.90
1880;DHT22;49285;49.002;8.390;2024-01-27T08:28:19;4.90;99.90
1880;DHT22;49285;49.002;8.390;2024-01-27T08:30:45;4.90;99.90
1880;DHT22;49285;49.002;8.390;2024-01-27T08:33:11;4.90;99.90
1880;DHT22;49285;49.002;8.390;2024-01-27T08:35:36;5.00;99.90
1880;DHT22;49285;49.002;8.390;2024-01-27T08:38:02;5.00;99.90
1880;DHT22;49285;49.002;8.390;2024-01-27T08:40:29;5.00;99.90
1880;DHT22;49285;49.002;8.390;2024-01-27T08:42:55;5.10;99.90
1880;DHT22;49285;49.002;8.390;2024-01-27T08:45:20;5.10;99.90
1880;DHT22;49285;49.002;8.390;2024-01-27T08:47:46;5.10;99.90
1880;DHT22;49285;49.002;8.390;2024-01-27T08:50:12;5.20;99.90
1880;DHT22;49285;49.002;8.390;2024-01-27T08:52:37;5.20;99.90
1880;DHT22;49285;49.002;8.390;2024-01-27T08:55:03;5.20;99.90
1880;DHT22;49285;49.002;8.390;2024-01-27T08:57:29;5.20;99.90
1880;DHT22;49285;49.002;8.390;2024-01-27T08:59:55;5.20;99.90
1880;DHT22;49285;49.002;8.390;2024-01-27T09:02:20;5.20;99.90
1880;DHT22;49285;49.002;8.390;2024-01-27T09:04:46;5.30;99.90
1880;DHT22;49285;49.002;8.390;2024-01-27T09:07:12;5.40;99.90
1880;DHT22;49285;49.002;8.390;2024-01-27T09:09:37;5.60;99.90
1880;DHT22;49285;49.002;8.390;2024-01-27T09:12:06;5.50;99.90
1880;DHT22;49285;49.002;8.390;2024-01-27T09:14:32;5.20;99.90
1880;DHT22;49285;49.002;8.390;2024-01-27T09:16:59;5.20;99.90
1880;DHT22;49285;49.002;8.390;2024-01-27T09:19:25;5.20;99.90
1880;DHT22;49285;49.002;8.390;2024-01-27T09:21:50;5.20;99.90
1880;DHT22;49285;49.002;8.390;2024-01-27T09:24:16;5.20;99.90
1880;DHT22;49285;49.002;8.390;2024-01-27T09:26:42;5.30;99.90
1880;DHT22;49285;49.002;8.390;2024-01-27T09:29:07;5.30;99.90
1880;DHT22;49285;49.002;8.390;2024-01-27T09:31:34;5.40;99.90
1880;DHT22;49285;49.002;8.390;2024-01-27T09:34:00;5.50;99.90
1880;DHT22;49285;49.002;8.390;2024-01-27T09:36:26;5.50;99.90
1880;DHT22;49285;49.002;8.390;2024-01-27T09:38:52;5.50;99.90
1880;DHT22;49285;49.002;8.390;2024-01-27T09:41:18;5.60;99.90
1880;DHT22;49285;49.002;8.390;2024-01-27T09:43:45;5.60;99.90
1880;DHT22;49285;49.002;8.390;2024-01-27T09:46:14;5.70;99.90
1880;DHT22;49285;49.002;8.390;2024-01-27T09:48:41;5.80;99.90
1880;DHT22;49285;49.002;8.390;2024-01-27T09:51:08;5.80;99.90
1880;DHT22;49285;49.002;8.390;2024-01-27T09:53:35;5.80;99.90
1880;DHT22;49285;49.002;8.390;2024-01-27T09:56:01;5.90;99.90
1880;DHT22;49285;49.002;8.390;2024-01-27T09:58:28;5.90;99.90
1880;DHT22;49285;49.002;8.390;2024-01-27T10:00:58;5.90;99.90
1880;DHT22;49285;49.002;8.390;2024-01-27T10:03:25;6.00;99.90
1880;DHT22;49285;49.002;8.390;2024-01-27T10:05:53;6.10;99.90
1880;DHT22;49285;49.002;8.390;2024-01-27T10:08:20;6.10;99.90
1880;DHT22;49285;49.002;8.390;2024-01-27T10:10:47;6.10;99.90
1880;DHT22;49285;49.002;8.390;2024-01-27T10:13:14;6.20;99.90
1880;DHT22;49285;49.002;8.390;2024-01-27T10:15:43;6.20;99.90
1880;DHT22;49285;49.002;8.390;2024-01-27T10:18:09;6.30;99.90
1880;DHT22;49285;49.002;8.390;2024-01-27T10:20:41;6.30;99.90
1880;DHT22;49285;49.002;8.390;2024-01-27T10:23:11;6.40;99.90
1880;DHT22;49285;49.002;8.390;2024-01-27T10:25:38;6.40;99.90
1880;DHT22;49285;49.002;8.390;2024-01-27T10:28:05;6.50;99.90
1880;DHT22;49285;49.002;8.390;2024-01-27T10:30:32;6.50;99.90
1880;DHT22;49285;49.002;8.390;2024-01-27T10:32:57;6.50;99.90
1880;DHT22;49285;49.002;8.390;2024-01-27T10:35:23;6.60;99.90
1880;DHT22;49285;49.002;8.390;2024-01-27T10:37:52;6.70;99.90
1880;DHT22;49285;49.002;8.390;2024-01-27T10:40:18;6.70;99.90
1880;DHT22;49285;49.002;8.390;2024-01-27T10:42:44;6.80;99.90
1880;DHT22;49285;49.002;8.390;2024-01-27T10:45:12;6.90;99.90
1880;DHT22;49285;49.002;8.390;2024-01-27T10:47:39;6.90;99.90
1880;DHT22;49285;49.002;8.390;2024-01-27T10:50:08;6.90;99.90
1880;DHT22;49285;49.002;8.390;2024-01-27T10:52:38;7.00;99.90
1880;DHT22;49285;49.002;8.390;2024-01-27T10:55:07;7.00;99.90
1880;DHT22;49285;49.002;8.390;2024-01-27T10:57:35;7.10;99.90
1880;DHT22;49285;49.002;8.390;2024-01-27T11:00:02;7.10;99.90
1880;DHT22;49285;49.002;8.390;2024-01-27T11:02:33;7.20;99.90
1880;DHT22;49285;49.002;8.390;2024-01-27T11:05:00;7.20;99.90
1880;DHT22;49285;49.002;8.390;2024-01-27T11:07:27;7.30;99.90
1880;DHT22;49285;49.002;8.390;2024-01-27T11:09:53;7.40;99.90
1880;DHT22;49285;49.002;8.390;2024-01-27T11:12:21;7.40;99.90
1880;DHT22;49285;49.002;8.390;2024-01-27T11:14:49;7.40;99.90
1880;DHT22;49285;49.002;8.390;2024-01-27T11:17:15;7.50;99.90
1880;DHT22;49285;49.002;8.390;2024-01-27T11:19:42;7.60;99.90
1880;DHT22;49285;49.002;8.390;2024-01-27T11:22:08;7.60;99.90
1880;DHT22;49285;49.002;8.390;2024-01-27T11:24:33;7.70;99.90
1880;DHT22;49285;49.002;8.390;2024-01-27T11:27:03;7.70;99.90
1880;DHT22;49285;49.002;8.390;2024-01-27T11:29:29;7.70;99.90
1880;DHT22;49285;49.002;8.390;2024-01-27T11:31:59;7.80;99.90
1880;DHT22;49285;49.002;8.390;2024-01-27T11:34:25;7.80;99.90
1880;DHT22;49285;49.002;8.390;2024-01-27T11:36:50;7.90;99.90
1880;DHT22;49285;49.002;8.390;2024-01-27T11:39:29;7.90;99.90
1880;DHT22;49285;49.002;8.390;2024-01-27T11:42:05;8.00;99.90
1880;DHT22;49285;49.002;8.390;2024-01-27T11:44:34;8.00;99.90
1880;DHT22;49285;49.002;8.390;2024-01-27T11:47:00;8.10;99.90
1880;DHT22;49285;49.002;8.390;2024-01-27T11:49:25;8.20;99.90
1880;DHT22;49285;49.002;8.390;2024-01-27T11:51:52;8.20;99.90
1880;DHT22;49285;49.002;8.390;2024-01-27T11:54:17;8.20;99.90
1880;DHT22;49285;49.002;8.390;2024-01-27T11:56:43;8.30;99.90
1880;DHT22;49285;49.002;8.390;2024-01-27T11:59:10;8.40;99.90
1880;DHT22;49285;49.002;8.390;2024-01-27T12:01:36;8.50;99.90
1880;DHT22;49285;49.002;8.390;2024-01-27T12:04:03;8.70;99.90
1880;DHT22;49285;49.002;8.390;2024-01-27T12:06:30;8.70;99.90
1880;DHT22;49285;49.002;8.390;2024-01-27T12:08:56;8.90;99.90
1880;DHT22;49285;49.002;8.390;2024-01-27T12:11:23;9.00;99.90
1880;DHT22;49285;49.002;8.390;2024-01-27T12:13:49;9.10;99.90
1880;DHT22;49285;49.002;8.390;2024-01-27T12:16:18;9.20;99.90
1880;DHT22;49285;49.002;8.390;2024-01-27T12:18:44;9.30;99.90
1880;DHT22;49285;49.002;8.390;2024-01-27T12:21:10;9.40;99.90
1880;DHT22;49285;49.002;8.390;2024-01-27T12:23:36;9.60;99.90
1880;DHT22;49285;49.002;8.390;2024-01-27T12:26:02;9.90;99.90
1880;DHT22;49285;49.002;8.390;2024-01-27T12:28:27;11.30;99.90
1880;DHT22;49285;49.002;8.390;2024-01-27T12:30:53;13.70;99.90
1880;DHT22;49285;49.002;8.390;2024-01-27T12:33:20;16.10;99.90
1880;DHT22;49285;49.002;8.390;2024-01-27T12:35:50;18.20;99.90
1880;DHT22;49285;49.002;8.390;2024-01-27T12:38:17;20.00;99.90
1880;DHT22;49285;49.002;8.390;2024-01-27T12:40:43;21.50;99.90
1880;DHT22;49285;49.002;8.390;2024-01-27T12:43:10;22.70;99.90
1880;DHT22;49285;49.002;8.390;2024-01-27T12:45:36;23.70;99.20
1880;DHT22;49285;49.002;8.390;2024-01-27T12:48:03;24.80;94.90
1880;DHT22;49285;49.002;8.390;2024-01-27T12:50:30;25.60;90.80
1880;DHT22;49285;49.002;8.390;2024-01-27T12:52:57;26.30;82.70
1880;DHT22;49285;49.002;8.390;2024-01-27T12:55:23;26.80;75.40
1880;DHT22;49285;49.002;8.390;2024-01-27T12:57:48;27.30;68.70
1880;DHT22;49285;49.002;8.390;2024-01-27T13:00:14;27.70;65.40
1880;DHT22;49285;49.002;8.390;2024-01-27T13:02:40;28.00;57.30
1880;DHT22;49285;49.002;8.390;2024-01-27T13:05:06;28.20;56.60
1880;DHT22;49285;49.002;8.390;2024-01-27T13:07:34;28.40;55.00
1880;DHT22;49285;49.002;8.390;2024-01-27T13:10:00;28.50;52.80
1880;DHT22;49285;49.002;8.390;2024-01-27T13:12:25;28.50;52.10
1880;DHT22;49285;49.002;8.390;2024-01-27T13:14:56;28.50;51.80
1880;DHT22;49285;49.002;8.390;2024-01-27T13:17:22;28.40;50.90
1880;DHT22;49285;49.002;8.390;2024-01-27T13:19:51;28.30;49.50
1880;DHT22;49285;49.002;8.390;2024-01-27T13:22:16;28.10;49.70
1880;DHT22;49285;49.002;8.390;2024-01-27T13:24:42;27.80;49.60
1880;DHT22;49285;49.002;8.390;2024-01-27T13:27:08;27.40;49.90
1880;DHT22;49285;49.002;8.390;2024-01-27T13:29:34;27.00;49.80
1880;DHT22;49285;49.002;8.390;2024-01-27T13:32:00;26.70;50.10
1880;DHT22;49285;49.002;8.390;2024-01-27T13:34:27;26.30;49.60
1880;DHT22;49285;49.002;8.390;2024-01-27T13:36:54;26.00;50.40
1880;DHT22;49285;49.002;8.390;2024-01-27T13:39:19;25.40;50.60
1880;DHT22;49285;49.002;8.390;2024-01-27T13:41:45;24.60;49.60
1880;DHT22;49285;49.002;8.390;2024-01-27T13:44:10;23.80;50.50
1880;DHT22;49285;49.002;8.390;2024-01-27T13:46:36;22.90;51.30
1880;DHT22;49285;49.002;8.390;2024-01-27T13:49:01;21.90;51.10
1880;DHT22;49285;49.002;8.390;2024-01-27T13:51:27;21.10;52.40
1880;DHT22;49285;49.002;8.390;2024-01-27T13:53:52;20.40;52.80
1880;DHT22;49285;49.002;8.390;2024-01-27T13:56:18;19.90;53.50
1880;DHT22;49285;49.002;8.390;2024-01-27T13:58:45;19.30;54.10
1880;DHT22;49285;49.002;8.390;2024-01-27T14:01:12;18.80;54.50
1880;DHT22;49285;49.002;8.390;2024-01-27T14:03:37;18.30;55.00
1880;DHT22;49285;49.002;8.390;2024-01-27T14:06:04;17.90;55.70
1880;DHT22;49285;49.002;8.390;2024-01-27T14:08:30;17.50;56.30
1880;DHT22;49285;49.002;8.390;2024-01-27T14:10:55;17.10;57.10
1880;DHT22;49285;49.002;8.390;2024-01-27T14:13:21;16.90;57.90
1880;DHT22;49285;49.002;8.390;2024-01-27T14:15:47;16.70;58.70
1880;DHT22;49285;49.002;8.390;2024-01-27T14:18:13;16.40;59.40
1880;DHT22;49285;49.002;8.390;2024-01-27T14:20:46;16.20;59.70
1880;DHT22;49285;49.002;8.390;2024-01-27T14:23:12;15.90;60.50
1880;DHT22;49285;49.002;8.390;2024-01-27T14:25:37;15.70;61.40
1880;DHT22;49285;49.002;8.390;2024-01-27T14:28:03;15.50;62.70
1880;DHT22;49285;49.002;8.390;2024-01-27T14:30:32;15.40;63.00
1880;DHT22;49285;49.002;8.390;2024-01-27T14:32:57;15.20;62.90
1880;DHT22;49285;49.002;8.390;2024-01-27T14:35:23;15.20;63.70
1880;DHT22;49285;49.002;8.390;2024-01-27T14:37:50;15.00;63.80
1880;DHT22;49285;49.002;8.390;2024-01-27T14:40:16;14.90;63.60
1880;DHT22;49285;49.002;8.390;2024-01-27T14:42:44;14.70;64.00
1880;DHT22;49285;49.002;8.390;2024-01-27T14:45:12;14.60;64.60
1880;DHT22;49285;49.002;8.390;2024-01-27T14:47:37;14.50;64.90
1880;DHT22;49285;49.002;8.390;2024-01-27T14:50:04;14.40;66.00
1880;DHT22;49285;49.002;8.390;2024-01-27T14:52:31;14.30;66.30
1880;DHT22;49285;49.002;8.390;2024-01-27T14:54:57;14.20;66.60
1880;DHT22;49285;49.002;8.390;2024-01-27T14:57:23;14.10;67.30
1880;DHT22;49285;49.002;8.390;2024-01-27T14:59:49;14.00;68.40
1880;DHT22;49285;49.002;8.390;2024-01-27T15:02:15;13.80;67.90
1880;DHT22;49285;49.002;8.390;2024-01-27T15:04:40;13.70;68.40
1880;DHT22;49285;49.002;8.390;2024-01-27T15:07:07;13.60;69.00
1880;DHT22;49285;49.002;8.390;2024-01-27T15:09:34;13.50;69.50
1880;DHT22;49285;49.002;8.390;2024-01-27T15:12:00;13.40;70.00
1880;DHT22;49285;49.002;8.390;2024-01-27T15:14:26;13.30;70.70
1880;DHT22;49285;49.002;8.390;2024-01-27T15:16:51;13.10;71.00
1880;DHT22;49285;49.002;8.390;2024-01-27T15:19:18;13.00;71.40
1880;DHT22;49285;49.002;8.390;2024-01-27T15:21:43;12.90;71.80
1880;DHT22;49285;49.002;8.390;2024-01-27T15:24:09;12.90;72.40
1880;DHT22;49285;49.002;8.390;2024-01-27T15:26:35;12.80;72.60
1880;DHT22;49285;49.002;8.390;2024-01-27T15:29:01;12.70;73.00
1880;DHT22;49285;49.002;8.390;2024-01-27T15:31:27;12.60;73.30
1880;DHT22;49285;49.002;8.390;2024-01-27T15:33:53;12.50;73.90
1880;DHT22;49285;49.002;8.390;2024-01-27T15:36:18;12.40;74.40
1880;DHT22;49285;49.002;8.390;2024-01-27T15:38:44;12.30;74.90
1880;DHT22;49285;49.002;8.390;2024-01-27T15:41:09;12.10;75.10
1880;DHT22;49285;49.002;8.390;2024-01-27T15:43:35;12.00;75.60
1880;DHT22;49285;49.002;8.390;2024-01-27T15:46:01;11.90;76.20
1880;DHT22;49285;49.002;8.390;2024-01-27T15:48:34;11.80;76.70
1880;DHT22;49285;49.002;8.390;2024-01-27T15:51:02;11.70;77.30